createdAt,value
2023-02-04T00:00:18.261Z,8.00
2023-02-04T00:02:45.750Z,8.63
2023-02-04T00:05:13.748Z,7.40
2023-02-04T00:07:41.597Z,8.15
2023-02-04T00:10:09.854Z,7.25
2023-02-04T00:12:37.439Z,7.82
2023-02-04T00:15:05.790Z,8.20
2023-02-04T00:17:33.174Z,8.38
2023-02-04T00:20:00.545Z,8.15
2023-02-04T00:22:29.079Z,7.53
2023-02-04T00:24:56.577Z,7.55
2023-02-04T00:27:24.215Z,7.97
2023-02-04T00:29:51.656Z,8.32
2023-02-04T00:32:18.973Z,8.35
2023-02-04T00:34:46.301Z,8.88
2023-02-04T00:37:13.628Z,8.10
2023-02-04T00:39:40.870Z,8.55
2023-02-04T00:42:08.587Z,8.77
2023-02-04T00:44:36.653Z,7.85
2023-02-04T00:47:04.552Z,7.95
2023-02-04T00:49:33.433Z,7.47
2023-02-04T00:52:00.766Z,9.15
2023-02-04T00:54:28.306Z,8.98
2023-02-04T00:56:55.698Z,9.27
2023-02-04T00:59:23.174Z,8.88
2023-02-04T01:01:51.701Z,10.10
2023-02-04T01:04:19.169Z,10.10
2023-02-04T01:06:46.520Z,9.40
2023-02-04T01:09:14.281Z,9.95
2023-02-04T01:11:41.728Z,9.45
2023-02-04T01:14:09.109Z,8.90
2023-02-04T01:16:36.428Z,9.48
2023-02-04T01:19:03.777Z,9.32
2023-02-04T01:21:31.275Z,9.82
2023-02-04T01:23:58.631Z,10.23
2023-02-04T01:26:26.024Z,9.48
2023-02-04T01:28:56.046Z,9.88
2023-02-04T01:31:23.469Z,9.75
2023-02-04T01:33:50.849Z,9.50
2023-02-04T01:36:22.028Z,10.27
2023-02-04T01:38:51.268Z,10.32
2023-02-04T01:41:19.530Z,9.98
2023-02-04T01:43:48.970Z,10.85
2023-02-04T01:46:16.633Z,10.38
2023-02-04T01:48:43.995Z,10.82
2023-02-04T01:51:14.487Z,11.05
2023-02-04T01:53:41.925Z,10.55
2023-02-04T01:56:28.162Z,10.70
2023-02-04T01:58:57.133Z,11.65
2023-02-04T02:01:43.290Z,11.25
2023-02-04T02:04:12.659Z,12.05
2023-02-04T02:06:54.047Z,11.80
2023-02-04T02:09:21.581Z,11.98
2023-02-04T02:11:48.911Z,12.82
2023-02-04T02:14:16.317Z,13.15
2023-02-04T02:16:43.627Z,13.63
2023-02-04T02:19:14.981Z,12.23
2023-02-04T02:21:57.973Z,13.70
2023-02-04T02:24:28.946Z,14.40
2023-02-04T02:26:57.724Z,12.60
2023-02-04T02:29:25.648Z,13.60
2023-02-04T02:31:54.044Z,13.95
2023-02-04T02:34:21.570Z,13.52
2023-02-04T02:36:48.948Z,13.70
2023-02-04T02:39:16.310Z,14.15
2023-02-04T02:41:43.676Z,12.80
2023-02-04T02:44:12.475Z,12.13
2023-02-04T02:46:40.109Z,13.65
2023-02-04T02:49:09.260Z,13.43
2023-02-04T02:51:37.119Z,14.90
2023-02-04T02:54:04.491Z,14.65
2023-02-04T02:56:31.774Z,14.63
2023-02-04T02:59:12.552Z,13.07
2023-02-04T03:01:39.990Z,13.25
2023-02-04T03:04:07.386Z,14.75
2023-02-04T03:06:34.838Z,15.77
2023-02-04T03:09:05.920Z,13.05
2023-02-04T03:11:33.356Z,12.77
2023-02-04T03:14:03.958Z,12.70
2023-02-04T03:16:32.881Z,12.35
2023-02-04T03:19:05.241Z,12.30
2023-02-04T03:21:32.803Z,10.85
2023-02-04T03:24:00.272Z,11.73
2023-02-04T03:26:28.034Z,11.50
2023-02-04T03:28:55.718Z,12.30
2023-02-04T03:31:23.567Z,12.07
2023-02-04T03:33:50.962Z,11.88
2023-02-04T03:36:18.968Z,11.18
2023-02-04T03:38:46.340Z,11.52
2023-02-04T03:41:13.717Z,11.85
2023-02-04T03:43:41.045Z,11.38
2023-02-04T03:46:08.472Z,11.45
2023-02-04T03:48:35.824Z,11.45
2023-02-04T03:51:03.346Z,12.02
2023-02-04T03:53:31.046Z,11.00
2023-02-04T03:55:58.371Z,11.77
2023-02-04T03:58:25.671Z,11.75
2023-02-04T04:00:53.471Z,12.15
2023-02-04T04:03:20.958Z,10.98
2023-02-04T04:05:48.278Z,11.15
2023-02-04T04:08:15.616Z,13.02
2023-02-04T04:10:42.981Z,12.98
2023-02-04T04:13:10.283Z,11.60
2023-02-04T04:15:37.580Z,12.00
2023-02-04T04:18:04.946Z,11.80
2023-02-04T04:20:32.564Z,12.18
2023-02-04T04:22:59.986Z,11.50
2023-02-04T04:25:27.407Z,11.05
2023-02-04T04:27:54.847Z,11.50
2023-02-04T04:30:22.384Z,11.23
2023-02-04T04:32:49.654Z,10.95
2023-02-04T04:35:17.051Z,11.52
2023-02-04T04:37:44.367Z,10.70
2023-02-04T04:40:13.172Z,10.38
2023-02-04T04:42:40.681Z,10.55
2023-02-04T04:45:09.979Z,9.77
2023-02-04T04:47:37.266Z,9.27
2023-02-04T04:50:06.402Z,10.05
2023-02-04T04:52:33.808Z,9.35
2023-02-04T04:55:01.170Z,9.77
2023-02-04T04:57:28.477Z,9.90
2023-02-04T04:59:55.761Z,10.02
2023-02-04T05:02:23.115Z,9.00
2023-02-04T05:04:50.649Z,9.40
2023-02-04T05:07:17.977Z,10.23
2023-02-04T05:09:45.369Z,9.15
2023-02-04T05:12:12.681Z,8.80
2023-02-04T05:14:39.975Z,9.57
2023-02-04T05:17:07.207Z,9.52
2023-02-04T05:19:34.505Z,9.30
2023-02-04T05:22:02.075Z,8.60
2023-02-04T05:24:29.529Z,8.75
2023-02-04T05:26:56.882Z,8.00
2023-02-04T05:29:24.347Z,8.55
2023-02-04T05:31:51.813Z,7.00
2023-02-04T05:34:19.105Z,8.50
2023-02-04T05:36:46.421Z,7.97
2023-02-04T05:39:13.704Z,8.00
2023-02-04T05:41:41.054Z,9.35
2023-02-04T05:44:08.632Z,10.20
2023-02-04T05:46:36.644Z,9.57
2023-02-04T05:49:04.104Z,10.50
2023-02-04T05:51:31.502Z,11.90
2023-02-04T05:53:59.007Z,12.63
2023-02-04T05:56:26.429Z,12.77
2023-02-04T05:58:53.765Z,12.20
2023-02-04T06:01:21.293Z,13.48
2023-02-04T06:03:48.656Z,13.43
2023-02-04T06:06:15.962Z,12.93
2023-02-04T06:08:43.569Z,13.23
2023-02-04T06:11:12.404Z,13.27
2023-02-04T06:13:39.908Z,12.30
2023-02-04T06:16:07.589Z,13.43
2023-02-04T06:18:37.441Z,11.40
2023-02-04T06:21:05.003Z,12.23
2023-02-04T06:23:34.687Z,12.25
2023-02-04T06:26:05.421Z,12.73
2023-02-04T06:28:32.780Z,13.18
2023-02-04T06:31:00.307Z,13.13
2023-02-04T06:33:27.838Z,13.18
2023-02-04T06:35:55.477Z,13.50
2023-02-04T06:38:23.601Z,15.18
2023-02-04T06:40:53.870Z,15.50
2023-02-04T06:43:22.750Z,15.05
2023-02-04T06:45:51.431Z,14.45
2023-02-04T06:48:19.154Z,14.95
2023-02-04T06:50:46.542Z,13.77
2023-02-04T06:53:13.856Z,14.52
2023-02-04T06:55:41.360Z,14.70
2023-02-04T06:58:08.757Z,13.43
2023-02-04T07:00:36.058Z,14.48
2023-02-04T07:03:03.576Z,15.70
2023-02-04T07:05:40.520Z,15.30
2023-02-04T07:08:07.985Z,14.55
2023-02-04T07:10:35.621Z,15.27
2023-02-04T07:13:03.491Z,14.40
2023-02-04T07:15:40.532Z,14.65
2023-02-04T07:18:10.864Z,16.42
2023-02-04T07:20:38.291Z,15.43
2023-02-04T07:23:05.779Z,15.95
2023-02-04T07:25:33.256Z,17.08
2023-02-04T07:28:02.057Z,16.73
2023-02-04T07:30:29.700Z,18.30
2023-02-04T07:32:57.633Z,18.42
2023-02-04T07:35:25.362Z,19.30
2023-02-04T07:37:52.864Z,20.67
2023-02-04T07:40:21.889Z,20.38
2023-02-04T07:42:49.554Z,19.73
2023-02-04T07:45:18.609Z,18.95
2023-02-04T07:47:46.000Z,18.48
2023-02-04T07:50:16.944Z,21.05
2023-02-04T07:52:44.284Z,18.02
2023-02-04T07:55:14.342Z,17.55
2023-02-04T07:57:41.811Z,18.17
2023-02-04T08:00:09.819Z,18.02
2023-02-04T08:02:37.257Z,19.25
2023-02-04T08:05:04.869Z,19.23
2023-02-04T08:07:32.487Z,20.27
2023-02-04T08:09:59.715Z,18.65
2023-02-04T08:12:26.976Z,19.17
2023-02-04T08:14:54.267Z,17.35
2023-02-04T08:17:21.753Z,17.95
2023-02-04T08:19:49.274Z,18.35
2023-02-04T08:22:16.553Z,16.92
2023-02-04T08:24:43.868Z,17.65
2023-02-04T08:27:11.225Z,19.00
2023-02-04T08:29:38.666Z,18.48
2023-02-04T08:32:07.371Z,17.80
2023-02-04T08:34:36.427Z,17.08
2023-02-04T08:37:04.050Z,18.65
2023-02-04T08:39:32.892Z,16.83
2023-02-04T08:42:00.339Z,17.38
2023-02-04T08:44:27.632Z,18.33
2023-02-04T08:46:55.273Z,17.83
2023-02-04T08:49:26.165Z,17.75
2023-02-04T08:51:54.998Z,17.13
2023-02-04T08:54:26.082Z,16.38
2023-02-04T08:56:53.336Z,16.30
2023-02-04T08:59:22.607Z,15.05
2023-02-04T09:01:52.527Z,16.08
2023-02-04T09:04:23.618Z,15.88
2023-02-04T09:06:51.828Z,15.75
2023-02-04T09:09:21.626Z,16.80
2023-02-04T09:11:49.869Z,16.73
2023-02-04T09:14:17.274Z,15.30
2023-02-04T09:16:46.746Z,14.65
2023-02-04T09:19:16.475Z,15.20
2023-02-04T09:21:43.784Z,18.23
2023-02-04T09:24:11.195Z,17.75
2023-02-04T09:26:38.796Z,16.85
2023-02-04T09:29:06.747Z,16.90
2023-02-04T09:31:34.178Z,16.40
2023-02-04T09:34:01.640Z,16.33
2023-02-04T09:36:30.679Z,17.83
2023-02-04T09:38:58.066Z,17.85
2023-02-04T09:41:26.624Z,16.45
2023-02-04T09:43:53.955Z,14.52
2023-02-04T09:46:23.696Z,14.60
2023-02-04T09:48:52.392Z,12.20
2023-02-04T09:51:23.314Z,6.55
2023-02-04T09:53:51.211Z,7.68
2023-02-04T09:56:19.335Z,8.07
2023-02-04T09:58:47.041Z,8.30
2023-02-04T10:01:21.470Z,9.85
2023-02-04T10:03:51.492Z,9.75
2023-02-04T10:06:20.726Z,9.52
2023-02-04T10:08:51.625Z,10.70
2023-02-04T10:11:21.520Z,11.90
2023-02-04T10:13:55.189Z,11.85
2023-02-04T10:16:30.199Z,11.52
2023-02-04T10:19:10.410Z,11.02
2023-02-04T10:21:37.874Z,11.43
2023-02-04T10:24:26.694Z,12.95
2023-02-04T10:26:54.628Z,12.27
2023-02-04T10:29:26.087Z,10.82
2023-02-04T10:31:53.764Z,11.02
2023-02-04T10:34:45.619Z,11.52
2023-02-04T10:37:23.111Z,10.57
2023-02-04T10:39:50.649Z,11.02
2023-02-04T10:42:26.377Z,10.70
2023-02-04T10:44:53.943Z,10.68
2023-02-04T10:47:26.519Z,11.85
2023-02-04T10:49:56.363Z,11.18
2023-02-04T10:52:27.098Z,10.88
2023-02-04T10:54:54.425Z,11.90
2023-02-04T10:57:27.370Z,11.00
2023-02-04T11:02:45.990Z,12.73
2023-02-04T11:05:16.840Z,11.43
2023-02-04T11:07:45.105Z,11.38
2023-02-04T11:10:17.894Z,11.18
2023-02-04T11:15:39.189Z,11.13
2023-02-04T11:18:10.465Z,11.93
2023-02-04T11:20:40.048Z,10.68
2023-02-04T11:23:31.219Z,11.73
2023-02-04T11:26:17.218Z,11.90
2023-02-04T11:28:59.186Z,11.90
2023-02-04T11:31:28.011Z,11.88
2023-02-04T11:34:07.253Z,10.60
2023-02-04T11:36:35.215Z,12.40
2023-02-04T11:39:15.963Z,12.35
2023-02-04T11:41:46.105Z,11.95
2023-02-04T11:44:14.707Z,13.13
2023-02-04T11:46:42.322Z,12.05
2023-02-04T11:49:18.848Z,12.13
2023-02-04T11:51:46.761Z,12.38
2023-02-04T11:54:18.936Z,11.95
2023-02-04T11:56:52.709Z,11.90
2023-02-04T11:59:21.465Z,12.48
2023-02-04T12:01:49.160Z,12.07
2023-02-04T12:04:25.486Z,12.70
2023-02-04T12:07:06.221Z,12.48
2023-02-04T12:09:33.681Z,11.88
2023-02-04T12:12:03.238Z,12.63
2023-02-04T12:14:38.534Z,11.18
2023-02-04T12:17:19.949Z,11.77
2023-02-04T12:19:47.309Z,11.93
2023-02-04T12:22:15.741Z,11.57
2023-02-04T12:24:44.036Z,13.45
2023-02-04T12:27:11.496Z,13.35
2023-02-04T12:29:38.828Z,12.30
2023-02-04T12:32:06.228Z,13.70
2023-02-04T12:34:33.685Z,12.38
2023-02-04T12:37:01.176Z,13.52
2023-02-04T12:39:32.058Z,11.25
2023-02-04T12:41:59.629Z,11.13
2023-02-04T12:44:27.899Z,14.20
2023-02-04T12:46:55.488Z,11.75
2023-02-04T12:49:24.390Z,10.73
2023-02-04T12:51:52.410Z,11.05
2023-02-04T12:54:22.380Z,9.38
2023-02-04T12:56:52.628Z,8.43
2023-02-04T12:59:20.795Z,6.97
2023-02-04T13:01:48.199Z,6.50
2023-02-04T13:04:15.616Z,7.00
2023-02-04T13:06:42.975Z,6.93
2023-02-04T13:09:10.495Z,8.05
2023-02-04T13:11:37.861Z,8.30
2023-02-04T13:14:05.402Z,6.95
2023-02-04T13:16:33.607Z,6.63
2023-02-04T13:19:01.053Z,7.32
2023-02-04T13:21:28.439Z,6.25
2023-02-04T13:23:57.436Z,6.20
2023-02-04T13:26:25.143Z,6.57
2023-02-04T13:28:52.577Z,6.18
2023-02-04T13:31:20.028Z,6.85
2023-02-04T13:33:47.508Z,6.70
2023-02-04T13:36:14.845Z,6.43
2023-02-04T13:38:42.217Z,5.70
2023-02-04T13:41:09.629Z,6.13
2023-02-04T13:43:38.247Z,6.47
2023-02-04T13:46:06.501Z,6.43
2023-02-04T13:48:35.837Z,5.90
2023-02-04T13:51:04.157Z,6.18
2023-02-04T13:53:31.933Z,5.47
2023-02-04T13:55:59.383Z,5.00
2023-02-04T13:58:26.980Z,5.43
2023-02-04T14:00:57.616Z,5.43
2023-02-04T14:03:27.791Z,4.70
2023-02-04T14:05:55.900Z,5.22
2023-02-04T14:08:24.387Z,4.47
2023-02-04T14:10:51.808Z,4.85
2023-02-04T14:13:19.170Z,4.65
2023-02-04T14:15:46.609Z,4.72
2023-02-04T14:18:16.462Z,4.25
2023-02-04T14:20:43.847Z,3.72
2023-02-04T14:23:12.058Z,4.28
2023-02-04T14:25:39.836Z,3.85
2023-02-04T14:28:07.654Z,4.65
2023-02-04T14:30:35.410Z,4.47
2023-02-04T14:33:02.966Z,4.30
2023-02-04T14:35:30.442Z,4.85
2023-02-04T14:37:58.787Z,4.30
2023-02-04T14:40:29.433Z,4.72
2023-02-04T14:42:56.799Z,3.80
2023-02-04T14:45:24.170Z,3.42
2023-02-04T14:47:52.703Z,3.83
2023-02-04T14:50:20.123Z,4.03
2023-02-04T14:52:47.447Z,3.78
2023-02-04T14:55:15.170Z,3.88
2023-02-04T14:57:42.500Z,3.47
2023-02-04T15:00:10.928Z,3.83
2023-02-04T15:02:39.274Z,3.80
2023-02-04T15:05:06.974Z,4.25
2023-02-04T15:07:34.458Z,3.78
2023-02-04T15:10:01.790Z,3.47
2023-02-04T15:12:29.407Z,3.60
2023-02-04T15:14:56.720Z,3.60
2023-02-04T15:17:24.135Z,3.90
2023-02-04T15:19:51.653Z,4.22
2023-02-04T15:22:18.999Z,3.78
2023-02-04T15:24:46.399Z,3.35
2023-02-04T15:27:13.782Z,3.63
2023-02-04T15:29:41.160Z,4.05
2023-02-04T15:32:09.805Z,3.70
2023-02-04T15:34:37.176Z,3.90
2023-02-04T15:37:04.916Z,4.15
2023-02-04T15:39:32.278Z,3.60
2023-02-04T15:41:59.562Z,3.83
2023-02-04T15:44:27.135Z,3.80
2023-02-04T15:46:54.666Z,3.97
2023-02-04T15:49:22.211Z,3.75
2023-02-04T15:51:49.567Z,5.10
2023-02-04T15:54:16.967Z,4.03
2023-02-04T15:56:44.615Z,4.65
2023-02-04T15:59:11.977Z,4.10
2023-02-04T16:01:39.438Z,4.88
2023-02-04T16:04:08.082Z,4.35
2023-02-04T16:06:35.465Z,4.35
2023-02-04T16:09:03.050Z,4.60
2023-02-04T16:11:30.638Z,4.45
2023-02-04T16:13:58.735Z,5.47
2023-02-04T16:16:26.122Z,5.35
2023-02-04T16:18:53.463Z,6.13
2023-02-04T16:21:20.812Z,7.18
2023-02-04T16:23:48.406Z,7.43
2023-02-04T16:26:15.707Z,7.95
2023-02-04T16:28:43.148Z,6.20
2023-02-04T16:31:10.681Z,7.28
2023-02-04T16:33:38.311Z,7.10
2023-02-04T16:36:08.385Z,6.95
2023-02-04T16:38:37.162Z,8.38
2023-02-04T16:41:04.723Z,10.30
2023-02-04T16:43:32.105Z,8.25
2023-02-04T16:45:59.433Z,8.30
2023-02-04T16:48:29.500Z,6.72
2023-02-04T16:50:56.871Z,7.63
2023-02-04T16:53:24.382Z,6.93
2023-02-04T16:55:51.764Z,6.45
2023-02-04T16:58:19.832Z,6.53
2023-02-04T17:00:47.238Z,5.68
2023-02-04T17:03:15.330Z,6.47
2023-02-04T17:05:43.240Z,8.30
2023-02-04T17:08:13.214Z,9.25
2023-02-04T17:11:00.033Z,8.90
2023-02-04T17:13:29.928Z,9.77
2023-02-04T17:16:01.046Z,7.80
2023-02-04T17:18:30.323Z,8.25
2023-02-04T17:20:58.492Z,7.68
2023-02-04T17:23:26.997Z,7.68
2023-02-04T17:25:54.677Z,8.95
2023-02-04T17:28:22.087Z,8.27
2023-02-04T17:30:49.460Z,8.75
2023-02-04T17:33:16.830Z,8.80
2023-02-04T17:35:44.231Z,9.68
2023-02-04T17:38:11.579Z,10.45
2023-02-04T17:40:38.976Z,11.43
2023-02-04T17:43:07.514Z,12.20
2023-02-04T17:45:35.724Z,12.93
2023-02-04T17:48:05.340Z,13.15
2023-02-04T17:53:09.413Z,13.63
2023-02-04T17:55:38.083Z,15.20
2023-02-04T17:58:20.106Z,13.68
2023-02-04T18:00:48.254Z,14.25
2023-02-04T18:03:19.663Z,14.73
2023-02-04T18:05:51.756Z,14.40
2023-02-04T18:08:27.426Z,14.27
2023-02-04T18:10:57.103Z,14.10
2023-02-04T18:13:30.291Z,13.82
2023-02-04T18:16:06.824Z,18.35
2023-02-04T18:18:38.743Z,18.27
2023-02-04T18:21:30.672Z,20.90
2023-02-04T18:24:06.918Z,20.15
2023-02-04T18:26:34.573Z,19.30
2023-02-04T18:29:31.289Z,19.95
2023-02-04T18:32:33.922Z,19.35
2023-02-04T18:35:04.376Z,19.63
2023-02-04T18:37:33.981Z,19.38
2023-02-04T18:40:20.584Z,21.80
2023-02-04T18:42:48.633Z,23.08
2023-02-04T18:45:24.992Z,23.23
2023-02-04T18:47:58.809Z,24.17
2023-02-04T18:50:34.190Z,24.05
2023-02-04T18:53:23.489Z,26.17
2023-02-04T18:55:53.410Z,24.83
2023-02-04T18:58:31.260Z,28.00
2023-02-04T19:01:24.055Z,29.02
2023-02-04T19:04:02.183Z,30.48
2023-02-04T19:06:38.539Z,29.80
2023-02-04T19:09:24.538Z,31.45
2023-02-04T19:11:56.120Z,30.80
2023-02-04T19:14:35.007Z,29.67
2023-02-04T19:17:14.583Z,30.25
2023-02-04T19:19:49.420Z,30.55
2023-02-04T19:22:40.600Z,31.77
2023-02-04T19:25:33.524Z,32.17
2023-02-04T19:28:03.141Z,33.67
2023-02-04T19:30:30.728Z,33.88
2023-02-04T19:33:16.330Z,35.42
2023-02-04T19:35:44.122Z,37.20
2023-02-04T19:38:37.029Z,37.45
2023-02-04T19:41:26.641Z,36.75
2023-02-04T19:44:13.900Z,36.67
2023-02-04T19:46:45.024Z,33.85
2023-02-04T19:49:17.749Z,35.90
2023-02-04T19:51:47.400Z,35.92
2023-02-04T19:54:24.336Z,37.60
2023-02-04T19:56:53.274Z,35.65
2023-02-04T19:59:33.811Z,36.13
2023-02-04T20:02:07.115Z,36.80
2023-02-04T20:04:40.116Z,36.38
2023-02-04T20:09:41.964Z,36.42
2023-02-04T20:12:14.384Z,35.20
2023-02-04T20:14:47.211Z,35.65
2023-02-04T20:17:28.630Z,36.45
2023-02-04T20:19:56.691Z,38.28
2023-02-04T20:22:41.500Z,36.72
2023-02-04T20:25:21.122Z,37.83
2023-02-04T20:27:57.211Z,38.70
2023-02-04T20:30:29.994Z,40.75
2023-02-04T20:32:59.778Z,40.25
2023-02-04T20:35:33.612Z,42.13
2023-02-04T20:38:11.763Z,42.17
2023-02-04T20:40:39.283Z,42.10
2023-02-04T20:43:12.444Z,41.97
2023-02-04T20:45:47.267Z,40.45
2023-02-04T20:48:17.981Z,41.53
2023-02-04T20:50:48.858Z,40.75
2023-02-04T20:53:38.941Z,41.75
2023-02-04T20:56:22.521Z,38.97
2023-02-04T20:58:50.546Z,39.60
2023-02-04T21:01:17.982Z,41.53
2023-02-04T21:03:45.843Z,41.92
2023-02-04T21:06:28.973Z,41.92
2023-02-04T21:11:24.927Z,42.15
2023-02-04T21:13:54.487Z,41.58
2023-02-04T21:16:22.594Z,42.97
2023-02-04T21:18:50.776Z,42.85
2023-02-04T21:21:20.298Z,43.22
2023-02-04T21:23:47.648Z,43.83
2023-02-04T21:26:15.206Z,42.88
2023-02-04T21:28:42.619Z,46.63
2023-02-04T21:31:11.720Z,44.00
2023-02-04T21:33:39.480Z,46.40
2023-02-04T21:36:07.581Z,45.53
2023-02-04T21:38:34.988Z,46.10
2023-02-04T21:41:02.402Z,46.13
2023-02-04T21:43:30.285Z,49.80
2023-02-04T21:45:57.770Z,47.65
2023-02-04T21:48:25.154Z,44.85
2023-02-04T21:50:55.365Z,45.63
2023-02-04T21:53:22.768Z,44.13
2023-02-04T21:55:52.754Z,41.83
2023-02-04T21:58:20.190Z,42.15
2023-02-04T22:00:47.559Z,42.42
2023-02-04T22:03:17.279Z,43.03
2023-02-04T22:05:45.496Z,40.60
2023-02-04T22:08:13.034Z,39.90
2023-02-04T22:10:40.609Z,42.70
2023-02-04T22:13:07.998Z,39.08
2023-02-04T22:15:35.496Z,40.08
2023-02-04T22:18:02.932Z,39.35
2023-02-04T22:20:31.108Z,38.30
2023-02-04T22:22:58.405Z,40.00
2023-02-04T22:25:25.833Z,40.63
2023-02-04T22:27:53.104Z,38.55
2023-02-04T22:30:20.839Z,37.88
2023-02-04T22:32:48.440Z,37.65
2023-02-04T22:35:16.276Z,37.33
2023-02-04T22:37:44.060Z,38.42
2023-02-04T22:40:12.936Z,36.78
2023-02-04T22:42:40.358Z,34.92
2023-02-04T22:45:12.782Z,33.90
2023-02-04T22:47:40.232Z,32.53
2023-02-04T22:50:08.115Z,32.47
2023-02-04T22:52:35.656Z,32.47
2023-02-04T22:55:03.167Z,32.20
2023-02-04T22:57:30.691Z,32.13
2023-02-04T22:59:58.037Z,33.25
2023-02-04T23:02:25.360Z,35.92
2023-02-04T23:04:52.742Z,35.53
2023-02-04T23:07:20.116Z,34.47
2023-02-04T23:09:47.595Z,33.40
2023-02-04T23:12:15.098Z,31.98
2023-02-04T23:14:46.561Z,34.17
2023-02-04T23:17:15.289Z,34.40
2023-02-04T23:19:42.741Z,34.08
2023-02-04T23:22:10.959Z,33.65
2023-02-04T23:24:38.682Z,32.20
2023-02-04T23:27:06.363Z,32.22
2023-02-04T23:29:35.408Z,30.80
2023-02-04T23:32:03.523Z,31.45
2023-02-04T23:34:31.479Z,30.25
2023-02-04T23:36:58.775Z,32.22
2023-02-04T23:39:26.469Z,32.58
2023-02-04T23:41:53.790Z,32.83
2023-02-04T23:44:21.141Z,31.55
2023-02-04T23:46:48.512Z,32.90
2023-02-04T23:49:16.013Z,32.13
2023-02-04T23:51:43.519Z,34.30
2023-02-04T23:54:10.858Z,33.55
2023-02-04T23:56:38.196Z,33.90
2023-02-04T23:59:05.900Z,31.70
